Yellowstone Airport
KWYS : now visible

Airfield :











YOU CAN JOIN US ON...

 
LOGIN :

Register | Disclaimer

   EN    FR    IT 

 









Legend :    VFR   Marginal VFR   IFR   Intensive IFR   Very Intensive IFR
Visi :
Ceiling :
>= 8 km
>= 3000ft
5 to 8 km
1000 to 3000 ft
1500m to 5 km
500 to 1000 ft
800 to 1500m
200 to 500 ft
< 800m
< 200 ft
Symbols :   Thunderstorms  Fog  Heavy snow  Heavy precipitations  Wind > 20 kt






- Airport Elevation : 6649 ft


KWYS - Yellowstone

CURRENT METAR :
  • 280150Z AUTO 23006G12KT 10SM CLR 18/03 A3019 RMK AO2

EXPIRED METARs :
  • 280130Z AUTO 24011KT 200V270 10SM CLR 19/03 A3018 RMK AO2
  • 280105Z AUTO 23012KT 10SM CLR 19/02 A3017 RMK AO2
  • 280045Z AUTO 21014KT 10SM FEW080 19/02 A3016 RMK AO2
  • 280025Z AUTO 23011G16KT 210V270 10SM FEW080 FEW090 20/03 A3016 RMK AO2
  • 280010Z AUTO 23014G22KT 10SM SCT080 BKN090 20/02 A3016 RMK AO2
  • 272350Z AUTO 20011KT 10SM BKN085 20/03 A3016 RMK AO2
  • 272330Z AUTO 22012G18KT 10SM FEW085 19/02 A3016 RMK AO2
  • 272310Z AUTO 23012G18KT 10SM CLR 20/02 A3016 RMK AO2

TAF KWYS
Valid from the 28 at 00:00 until the 29 at 00:00 UTC


272329Z 2800/2824 22011KT P6SM SCT090 SCT250
FM280300 VRB05KT P6SM SKC
FM280900 VRB03KT 6SM BR SCT010
FM281800 21011KT P6SM FEW090 SCT200
KZLC FIR / North America



MET'MAP, your aeronautical weather chart ! - Copyright ORBIFLY December 2007 - Disclaimer

ORBIFLY MET'MAP TEAM :

Programming & Development : Alexandra Zaïnal
Concept & original design : Baudouin d'Aumeries
Assistance for programming : Marc-Olivier Méhu
Technical & hardware support : Manuel Goepfert

Contact : metmap@orbifly.com




SOURCES & CREDITS :

   NOAA       Earth
Advisory